Aérodrome :
LOGIN :

S'inscrire | Disclaimer

   EN    FR    IT 

 










Légende :    VFR   VFR Marginal   IFR   IFR Intensif   IFR Très Intensif
Visi : 
Plafond : 
>= 8 km
>= 3000ft
5 à 8 km
1000 à 3000 ft
1500m à 5 km
500 à 1000 ft
800 à 1500m
200 à 500 ft
< 800m
< 200 ft
Symboles :   Orages  Brouillard  Fortes neiges  Fortes précipitations  Vent > 20 kt
SIGMETs :   Divers  Orages  Givrage  Turbulence  Onde Orograph.  Cendres Volcan.







- Altitude de l'aérodrome : 408 ft
- Code IATA : FKB


EDSB - Karlsruhe Baden Baden

DERNIER METAR :
  • 221220Z VRB02KT 9999 FEW033 SCT048 17/09 Q1019

METARs EXPIRÉS :
  • 221150Z VRB02KT 9999 SCT033 SCT040 17/11 Q1020
  • 221120Z VRB03KT 9999 FEW032 SCT042 16/10 Q1020
  • 221050Z VRB04KT 9999 FEW027 SCT033 16/09 Q1020
  • 221020Z 24005KT 160V290 9999 FEW025 SCT031 BKN036 15/09 Q1020
  • 220950Z 23007KT 190V270 9999 FEW021 SCT037 15/10 Q1020

TAF TAF EDSB
Valide du 22 à 12h jusqu'au 23 à 12h UTC


221100Z 2212/2312 29005KT 9999 SCT040
BECMG 2217/2219 VRB03KT
Pas de NOTAMs connus pour ce terrain.



MET'MAP, la Météo Aéronautique d'un coup d'oeil ! - Copyright ORBIFLY Décembre 2007 - Disclaimer

ORBIFLY MET'MAP TEAM :

Programmation & Développement : Alexandra Zaïnal
Conception & Développement : Baudouin d'Aumeries
Co-Programmation & Développement : Marc-Olivier Méhu
Soutien technique & logistique : Manuel Goepfert

Contact : metmap@orbifly.com




SOURCES & CREDITS :

   NOAA